sensor_id;sensor_type;location;lat;lon;timestamp;pressure;altitude;pressure_sealevel;temperature;humidity
62333;BME280;48624;49.812;8.562;2023-05-03T00:00:45;101631.34;;;7.86;74.64
62333;BME280;48624;49.812;8.562;2023-05-03T00:03:10;101636.06;;;8.02;72.87
62333;BME280;48624;49.812;8.562;2023-05-03T00:05:37;101630.16;;;7.95;73.54
62333;BME280;48624;49.812;8.562;2023-05-03T00:08:03;101640.13;;;7.87;74.37
62333;BME280;48624;49.812;8.562;2023-05-03T00:10:29;101628.50;;;7.69;75.10
62333;BME280;48624;49.812;8.562;2023-05-03T00:12:54;101631.34;;;7.62;75.46
62333;BME280;48624;49.812;8.562;2023-05-03T00:15:20;101629.97;;;7.76;74.24
62333;BME280;48624;49.812;8.562;2023-05-03T00:17:46;101625.63;;;7.75;74.54
62333;BME280;48624;49.812;8.562;2023-05-03T00:20:11;101637.63;;;7.84;73.87
62333;BME280;48624;49.812;8.562;2023-05-03T00:22:37;101633.69;;;7.70;74.71
62333;BME280;48624;49.812;8.562;2023-05-03T00:25:02;101627.47;;;7.73;74.28
62333;BME280;48624;49.812;8.562;2023-05-03T00:27:28;101630.22;;;7.70;74.93
62333;BME280;48624;49.812;8.562;2023-05-03T00:29:54;101622.41;;;7.67;75.11
62333;BME280;48624;49.812;8.562;2023-05-03T00:32:20;101620.09;;;7.57;74.99
62333;BME280;48624;49.812;8.562;2023-05-03T00:34:52;101623.59;;;7.58;74.89
62333;BME280;48624;49.812;8.562;2023-05-03T00:37:17;101614.78;;;7.59;74.42
62333;BME280;48624;49.812;8.562;2023-05-03T00:39:43;101623.16;;;7.46;75.68
62333;BME280;48624;49.812;8.562;2023-05-03T00:42:08;101613.28;;;7.52;74.89
62333;BME280;48624;49.812;8.562;2023-05-03T00:44:33;101613.91;;;7.58;74.22
62333;BME280;48624;49.812;8.562;2023-05-03T00:46:59;101623.19;;;7.45;75.45
62333;BME280;48624;49.812;8.562;2023-05-03T00:49:25;101612.16;;;7.33;75.49
62333;BME280;48624;49.812;8.562;2023-05-03T00:51:52;101602.78;;;6.99;77.57
62333;BME280;48624;49.812;8.562;2023-05-03T00:54:17;101596.44;;;7.05;77.24
62333;BME280;48624;49.812;8.562;2023-05-03T00:56:43;101602.59;;;7.05;76.94
62333;BME280;48624;49.812;8.562;2023-05-03T00:59:10;101596.22;;;7.13;76.59
62333;BME280;48624;49.812;8.562;2023-05-03T01:01:35;101589.91;;;6.91;78.03
62333;BME280;48624;49.812;8.562;2023-05-03T01:04:01;101590.69;;;6.93;78.02
62333;BME280;48624;49.812;8.562;2023-05-03T01:09:05;101583.56;;;6.70;78.82
62333;BME280;48624;49.812;8.562;2023-05-03T01:12:01;101600.84;;;6.79;78.15
62333;BME280;48624;49.812;8.562;2023-05-03T01:17:28;101588.16;;;6.65;78.75
62333;BME280;48624;49.812;8.562;2023-05-03T01:19:56;101597.19;;;6.56;79.78
62333;BME280;48624;49.812;8.562;2023-05-03T01:25:13;101587.19;;;6.41;81.19
62333;BME280;48624;49.812;8.562;2023-05-03T01:27:40;101585.03;;;6.25;82.46
62333;BME280;48624;49.812;8.562;2023-05-03T01:30:07;101583.78;;;6.37;81.60
62333;BME280;48624;49.812;8.562;2023-05-03T01:35:13;101575.50;;;6.21;82.20
62333;BME280;48624;49.812;8.562;2023-05-03T01:37:41;101574.03;;;6.12;82.89
62333;BME280;48624;49.812;8.562;2023-05-03T01:40:07;101578.88;;;6.24;82.00
62333;BME280;48624;49.812;8.562;2023-05-03T01:42:38;101566.28;;;6.07;82.38
62333;BME280;48624;49.812;8.562;2023-05-03T01:45:03;101575.06;;;6.06;82.68
62333;BME280;48624;49.812;8.562;2023-05-03T01:47:29;101568.56;;;6.18;82.18
62333;BME280;48624;49.812;8.562;2023-05-03T01:49:55;101564.97;;;5.91;83.32
62333;BME280;48624;49.812;8.562;2023-05-03T01:52:20;101569.00;;;6.04;83.24
62333;BME280;48624;49.812;8.562;2023-05-03T01:54:46;101576.22;;;6.26;81.36
62333;BME280;48624;49.812;8.562;2023-05-03T01:57:11;101574.19;;;6.06;82.45
62333;BME280;48624;49.812;8.562;2023-05-03T01:59:36;101563.34;;;6.17;80.96
62333;BME280;48624;49.812;8.562;2023-05-03T02:02:01;101568.09;;;6.05;82.25
62333;BME280;48624;49.812;8.562;2023-05-03T02:04:27;101569.31;;;5.92;82.93
62333;BME280;48624;49.812;8.562;2023-05-03T02:06:53;101576.00;;;5.74;83.05
62333;BME280;48624;49.812;8.562;2023-05-03T02:09:19;101581.31;;;5.72;83.46
62333;BME280;48624;49.812;8.562;2023-05-03T02:11:44;101586.66;;;5.99;82.23
62333;BME280;48624;49.812;8.562;2023-05-03T02:14:10;101582.63;;;5.87;82.93
62333;BME280;48624;49.812;8.562;2023-05-03T02:16:36;101581.88;;;5.83;83.12
62333;BME280;48624;49.812;8.562;2023-05-03T02:19:01;101585.31;;;5.86;83.26
62333;BME280;48624;49.812;8.562;2023-05-03T02:21:27;101582.00;;;5.79;83.24
62333;BME280;48624;49.812;8.562;2023-05-03T02:23:52;101591.28;;;5.61;83.66
62333;BME280;48624;49.812;8.562;2023-05-03T02:26:19;101585.50;;;5.48;84.80
62333;BME280;48624;49.812;8.562;2023-05-03T02:28:44;101584.78;;;5.43;84.88
62333;BME280;48624;49.812;8.562;2023-05-03T02:31:10;101595.72;;;5.27;86.15
62333;BME280;48624;49.812;8.562;2023-05-03T02:33:35;101590.22;;;5.36;86.00
62333;BME280;48624;49.812;8.562;2023-05-03T02:36:00;101598.25;;;5.30;86.08
62333;BME280;48624;49.812;8.562;2023-05-03T02:38:26;101597.41;;;5.30;85.98
62333;BME280;48624;49.812;8.562;2023-05-03T02:40:51;101587.94;;;5.22;86.22
62333;BME280;48624;49.812;8.562;2023-05-03T02:43:16;101594.66;;;5.34;85.14
62333;BME280;48624;49.812;8.562;2023-05-03T02:45:42;101590.88;;;5.43;84.99
62333;BME280;48624;49.812;8.562;2023-05-03T02:48:08;101595.22;;;5.46;84.67
62333;BME280;48624;49.812;8.562;2023-05-03T02:50:34;101595.47;;;5.36;85.19
62333;BME280;48624;49.812;8.562;2023-05-03T02:52:59;101606.84;;;5.37;85.35
62333;BME280;48624;49.812;8.562;2023-05-03T02:55:25;101610.41;;;5.34;84.70
62333;BME280;48624;49.812;8.562;2023-05-03T02:57:50;101606.22;;;5.27;85.86
62333;BME280;48624;49.812;8.562;2023-05-03T03:00:17;101602.66;;;5.30;85.35
62333;BME280;48624;49.812;8.562;2023-05-03T03:02:43;101603.81;;;5.19;86.13
62333;BME280;48624;49.812;8.562;2023-05-03T03:05:08;101605.63;;;5.17;85.99
62333;BME280;48624;49.812;8.562;2023-05-03T03:07:36;101599.22;;;5.27;85.68
62333;BME280;48624;49.812;8.562;2023-05-03T03:10:02;101599.34;;;5.23;85.74
62333;BME280;48624;49.812;8.562;2023-05-03T03:12:28;101592.13;;;5.31;85.15
62333;BME280;48624;49.812;8.562;2023-05-03T03:14:53;101598.97;;;5.37;84.59
62333;BME280;48624;49.812;8.562;2023-05-03T03:17:19;101600.50;;;5.12;86.06
62333;BME280;48624;49.812;8.562;2023-05-03T03:19:44;101605.44;;;5.23;85.27
62333;BME280;48624;49.812;8.562;2023-05-03T03:22:10;101608.66;;;5.00;85.59
62333;BME280;48624;49.812;8.562;2023-05-03T03:24:35;101600.78;;;5.00;86.52
62333;BME280;48624;49.812;8.562;2023-05-03T03:27:00;101604.34;;;4.97;86.42
62333;BME280;48624;49.812;8.562;2023-05-03T03:29:28;101596.28;;;5.05;85.25
62333;BME280;48624;49.812;8.562;2023-05-03T03:31:54;101606.13;;;4.97;86.28
62333;BME280;48624;49.812;8.562;2023-05-03T03:34:19;101601.38;;;5.11;85.45
62333;BME280;48624;49.812;8.562;2023-05-03T03:36:44;101612.41;;;4.91;86.79
62333;BME280;48624;49.812;8.562;2023-05-03T03:39:10;101603.88;;;4.81;86.83
62333;BME280;48624;49.812;8.562;2023-05-03T03:41:35;101608.44;;;4.75;87.45
62333;BME280;48624;49.812;8.562;2023-05-03T03:44:01;101602.09;;;4.83;86.77
62333;BME280;48624;49.812;8.562;2023-05-03T03:46:26;101598.25;;;4.97;85.76
62333;BME280;48624;49.812;8.562;2023-05-03T03:48:51;101591.63;;;4.82;86.43
62333;BME280;48624;49.812;8.562;2023-05-03T03:51:17;101600.56;;;4.75;87.03
62333;BME280;48624;49.812;8.562;2023-05-03T03:53:42;101591.81;;;4.74;86.78
62333;BME280;48624;49.812;8.562;2023-05-03T03:56:07;101593.56;;;4.75;86.58
62333;BME280;48624;49.812;8.562;2023-05-03T03:58:33;101591.97;;;4.68;87.49
62333;BME280;48624;49.812;8.562;2023-05-03T04:00:59;101584.72;;;5.12;84.02
62333;BME280;48624;49.812;8.562;2023-05-03T04:03:25;101585.47;;;4.83;86.18
62333;BME280;48624;49.812;8.562;2023-05-03T04:05:50;101590.97;;;4.74;86.19
62333;BME280;48624;49.812;8.562;2023-05-03T04:08:16;101599.03;;;4.66;86.25
62333;BME280;48624;49.812;8.562;2023-05-03T04:10:41;101607.69;;;4.69;86.63
62333;BME280;48624;49.812;8.562;2023-05-03T04:13:07;101599.78;;;4.69;86.55
62333;BME280;48624;49.812;8.562;2023-05-03T04:15:32;101601.31;;;4.80;86.22
62333;BME280;48624;49.812;8.562;2023-05-03T04:17:58;101600.19;;;4.54;87.13
62333;BME280;48624;49.812;8.562;2023-05-03T04:20:23;101616.97;;;4.47;87.75
62333;BME280;48624;49.812;8.562;2023-05-03T04:22:48;101608.84;;;4.57;87.67
62333;BME280;48624;49.812;8.562;2023-05-03T04:25:14;101612.56;;;4.49;87.83
62333;BME280;48624;49.812;8.562;2023-05-03T04:27:41;101617.00;;;4.45;88.37
62333;BME280;48624;49.812;8.562;2023-05-03T04:30:07;101616.41;;;4.34;89.25
62333;BME280;48624;49.812;8.562;2023-05-03T04:32:32;101620.50;;;4.46;87.97
62333;BME280;48624;49.812;8.562;2023-05-03T04:35:03;101623.41;;;4.71;86.94
62333;BME280;48624;49.812;8.562;2023-05-03T04:37:32;101623.91;;;4.49;88.01
62333;BME280;48624;49.812;8.562;2023-05-03T04:39:57;101625.41;;;4.61;88.19
62333;BME280;48624;49.812;8.562;2023-05-03T04:42:23;101622.50;;;4.72;87.00
62333;BME280;48624;49.812;8.562;2023-05-03T04:44:48;101622.34;;;4.78;87.13
62333;BME280;48624;49.812;8.562;2023-05-03T04:47:13;101632.19;;;4.70;87.74
62333;BME280;48624;49.812;8.562;2023-05-03T04:49:39;101635.50;;;4.77;87.37
62333;BME280;48624;49.812;8.562;2023-05-03T04:52:04;101629.97;;;4.89;87.16
62333;BME280;48624;49.812;8.562;2023-05-03T04:54:29;101631.28;;;5.06;86.06
62333;BME280;48624;49.812;8.562;2023-05-03T04:56:55;101625.91;;;5.10;85.52
62333;BME280;48624;49.812;8.562;2023-05-03T04:59:20;101624.72;;;4.89;86.99
62333;BME280;48624;49.812;8.562;2023-05-03T05:01:46;101630.22;;;5.13;85.74
62333;BME280;48624;49.812;8.562;2023-05-03T05:04:13;101634.28;;;5.26;84.59
62333;BME280;48624;49.812;8.562;2023-05-03T05:06:38;101633.41;;;5.26;84.57
62333;BME280;48624;49.812;8.562;2023-05-03T05:09:06;101633.78;;;5.10;84.46
62333;BME280;48624;49.812;8.562;2023-05-03T05:11:31;101627.16;;;5.63;82.99
62333;BME280;48624;49.812;8.562;2023-05-03T05:13:57;101629.50;;;5.41;82.73
62333;BME280;48624;49.812;8.562;2023-05-03T05:16:22;101633.75;;;5.45;83.22
62333;BME280;48624;49.812;8.562;2023-05-03T05:18:47;101637.66;;;5.63;82.01
62333;BME280;48624;49.812;8.562;2023-05-03T05:21:13;101632.84;;;5.78;80.68
62333;BME280;48624;49.812;8.562;2023-05-03T05:23:40;101630.28;;;6.08;79.71
62333;BME280;48624;49.812;8.562;2023-05-03T05:26:05;101632.78;;;5.81;80.64
62333;BME280;48624;49.812;8.562;2023-05-03T05:28:31;101634.13;;;5.94;79.81
62333;BME280;48624;49.812;8.562;2023-05-03T05:30:56;101643.69;;;5.99;80.43
62333;BME280;48624;49.812;8.562;2023-05-03T05:33:22;101638.91;;;6.11;80.03
62333;BME280;48624;49.812;8.562;2023-05-03T05:35:48;101639.28;;;6.58;77.78
62333;BME280;48624;49.812;8.562;2023-05-03T05:38:15;101636.13;;;6.46;77.76
62333;BME280;48624;49.812;8.562;2023-05-03T05:40:41;101635.66;;;6.33;79.23
62333;BME280;48624;49.812;8.562;2023-05-03T05:43:06;101627.72;;;6.05;79.07
62333;BME280;48624;49.812;8.562;2023-05-03T05:45:34;101628.59;;;6.62;77.44
62333;BME280;48624;49.812;8.562;2023-05-03T05:47:59;101633.28;;;6.81;76.27
62333;BME280;48624;49.812;8.562;2023-05-03T05:50:25;101636.09;;;6.75;76.29
62333;BME280;48624;49.812;8.562;2023-05-03T05:52:51;101632.81;;;6.95;76.14
62333;BME280;48624;49.812;8.562;2023-05-03T05:55:19;101638.13;;;7.19;74.92
62333;BME280;48624;49.812;8.562;2023-05-03T05:57:45;101631.25;;;6.89;76.03
62333;BME280;48624;49.812;8.562;2023-05-03T06:00:13;101632.00;;;6.93;76.68
62333;BME280;48624;49.812;8.562;2023-05-03T06:02:43;101625.69;;;7.24;75.85
62333;BME280;48624;49.812;8.562;2023-05-03T06:05:10;101619.22;;;7.33;74.77
62333;BME280;48624;49.812;8.562;2023-05-03T06:07:36;101627.91;;;7.35;75.11
62333;BME280;48624;49.812;8.562;2023-05-03T06:10:02;101631.69;;;7.53;73.57
62333;BME280;48624;49.812;8.562;2023-05-03T06:12:28;101630.81;;;7.53;73.68
62333;BME280;48624;49.812;8.562;2023-05-03T06:14:53;101627.88;;;7.36;75.29
62333;BME280;48624;49.812;8.562;2023-05-03T06:17:19;101623.50;;;7.85;73.66
62333;BME280;48624;49.812;8.562;2023-05-03T06:19:46;101619.50;;;8.21;71.80
62333;BME280;48624;49.812;8.562;2023-05-03T06:22:13;101615.13;;;7.97;72.01
62333;BME280;48624;49.812;8.562;2023-05-03T06:24:39;101610.84;;;8.17;71.01
62333;BME280;48624;49.812;8.562;2023-05-03T06:27:04;101608.50;;;8.09;70.74
62333;BME280;48624;49.812;8.562;2023-05-03T06:29:30;101607.19;;;7.97;72.25
62333;BME280;48624;49.812;8.562;2023-05-03T06:31:55;101604.66;;;8.40;71.12
62333;BME280;48624;49.812;8.562;2023-05-03T06:34:21;101607.53;;;8.34;70.23
62333;BME280;48624;49.812;8.562;2023-05-03T06:36:46;101608.09;;;8.65;69.03
62333;BME280;48624;49.812;8.562;2023-05-03T06:39:12;101613.06;;;8.72;69.04
62333;BME280;48624;49.812;8.562;2023-05-03T06:41:39;101607.97;;;9.11;67.64
62333;BME280;48624;49.812;8.562;2023-05-03T06:44:04;101618.25;;;8.76;68.54
62333;BME280;48624;49.812;8.562;2023-05-03T06:46:31;101616.19;;;9.24;65.92
62333;BME280;48624;49.812;8.562;2023-05-03T06:48:56;101626.97;;;8.98;66.84
62333;BME280;48624;49.812;8.562;2023-05-03T06:51:23;101609.47;;;9.37;65.13
62333;BME280;48624;49.812;8.562;2023-05-03T06:53:53;101605.47;;;9.48;66.20
62333;BME280;48624;49.812;8.562;2023-05-03T06:56:18;101619.47;;;9.90;64.56
62333;BME280;48624;49.812;8.562;2023-05-03T06:58:44;101621.78;;;9.57;66.07
62333;BME280;48624;49.812;8.562;2023-05-03T07:01:09;101621.97;;;9.93;64.08
62333;BME280;48624;49.812;8.562;2023-05-03T07:03:36;101623.56;;;9.97;63.57
62333;BME280;48624;49.812;8.562;2023-05-03T07:06:01;101610.56;;;10.29;63.10
62333;BME280;48624;49.812;8.562;2023-05-03T07:08:27;101619.84;;;10.57;61.40
62333;BME280;48624;49.812;8.562;2023-05-03T07:10:52;101613.63;;;10.58;61.15
62333;BME280;48624;49.812;8.562;2023-05-03T07:13:18;101622.56;;;10.55;61.26
62333;BME280;48624;49.812;8.562;2023-05-03T07:15:43;101620.25;;;10.67;60.86
62333;BME280;48624;49.812;8.562;2023-05-03T07:18:10;101618.66;;;10.82;60.50
62333;BME280;48624;49.812;8.562;2023-05-03T07:20:35;101611.38;;;10.68;62.02
62333;BME280;48624;49.812;8.562;2023-05-03T07:23:00;101615.84;;;10.85;60.42
62333;BME280;48624;49.812;8.562;2023-05-03T07:25:26;101601.34;;;10.92;61.42
62333;BME280;48624;49.812;8.562;2023-05-03T07:27:51;101601.16;;;10.78;61.62
62333;BME280;48624;49.812;8.562;2023-05-03T07:30:17;101608.50;;;10.73;59.93
62333;BME280;48624;49.812;8.562;2023-05-03T07:32:42;101611.84;;;11.12;59.66
62333;BME280;48624;49.812;8.562;2023-05-03T07:35:08;101601.88;;;10.99;60.52
62333;BME280;48624;49.812;8.562;2023-05-03T07:37:33;101604.16;;;11.41;60.70
62333;BME280;48624;49.812;8.562;2023-05-03T07:39:58;101602.94;;;11.30;60.50
62333;BME280;48624;49.812;8.562;2023-05-03T07:42:24;101600.75;;;11.55;59.95
62333;BME280;48624;49.812;8.562;2023-05-03T07:44:51;101606.75;;;11.58;59.46
62333;BME280;48624;49.812;8.562;2023-05-03T07:47:16;101599.44;;;11.79;58.28
62333;BME280;48624;49.812;8.562;2023-05-03T07:49:42;101593.81;;;11.86;58.24
62333;BME280;48624;49.812;8.562;2023-05-03T07:52:07;101600.47;;;12.57;57.92
62333;BME280;48624;49.812;8.562;2023-05-03T07:54:32;101598.41;;;12.62;57.75
62333;BME280;48624;49.812;8.562;2023-05-03T07:56:58;101604.28;;;12.98;56.83
62333;BME280;48624;49.812;8.562;2023-05-03T07:59:23;101608.69;;;12.53;57.65
62333;BME280;48624;49.812;8.562;2023-05-03T08:01:48;101606.22;;;12.80;56.40
62333;BME280;48624;49.812;8.562;2023-05-03T08:04:14;101602.84;;;12.93;56.78
62333;BME280;48624;49.812;8.562;2023-05-03T08:06:39;101597.66;;;12.75;57.99
62333;BME280;48624;49.812;8.562;2023-05-03T08:09:06;101606.69;;;13.17;55.36
62333;BME280;48624;49.812;8.562;2023-05-03T08:11:32;101600.88;;;13.11;55.25
62333;BME280;48624;49.812;8.562;2023-05-03T08:13:58;101594.84;;;13.23;56.53
62333;BME280;48624;49.812;8.562;2023-05-03T08:16:23;101597.59;;;13.22;55.75
62333;BME280;48624;49.812;8.562;2023-05-03T08:18:49;101583.31;;;13.37;55.32
62333;BME280;48624;49.812;8.562;2023-05-03T08:21:14;101588.44;;;13.11;56.09
62333;BME280;48624;49.812;8.562;2023-05-03T08:23:41;101583.69;;;13.02;57.36
62333;BME280;48624;49.812;8.562;2023-05-03T08:26:07;101584.09;;;12.80;57.03
62333;BME280;48624;49.812;8.562;2023-05-03T08:28:33;101577.91;;;13.39;54.95
62333;BME280;48624;49.812;8.562;2023-05-03T08:30:58;101580.09;;;13.32;55.49
62333;BME280;48624;49.812;8.562;2023-05-03T08:33:24;101580.81;;;13.05;58.72
62333;BME280;48624;49.812;8.562;2023-05-03T08:35:49;101584.44;;;13.04;57.06
62333;BME280;48624;49.812;8.562;2023-05-03T08:38:15;101578.03;;;13.52;56.21
62333;BME280;48624;49.812;8.562;2023-05-03T08:40:40;101583.16;;;13.40;56.99
62333;BME280;48624;49.812;8.562;2023-05-03T08:43:07;101590.72;;;13.90;54.92
62333;BME280;48624;49.812;8.562;2023-05-03T08:45:34;101580.09;;;13.90;54.59
62333;BME280;48624;49.812;8.562;2023-05-03T08:47:59;101586.31;;;14.04;53.22
62333;BME280;48624;49.812;8.562;2023-05-03T08:50:27;101584.44;;;13.91;54.21
62333;BME280;48624;49.812;8.562;2023-05-03T08:52:53;101589.22;;;14.28;53.02
62333;BME280;48624;49.812;8.562;2023-05-03T08:55:18;101584.03;;;14.39;53.04
62333;BME280;48624;49.812;8.562;2023-05-03T08:57:43;101588.41;;;14.40;53.15
62333;BME280;48624;49.812;8.562;2023-05-03T09:00:09;101585.41;;;14.73;52.74
62333;BME280;48624;49.812;8.562;2023-05-03T09:02:36;101583.56;;;14.60;52.00
62333;BME280;48624;49.812;8.562;2023-05-03T09:05:28;101582.25;;;14.53;52.85
62333;BME280;48624;49.812;8.562;2023-05-03T09:08:10;101587.38;;;14.83;50.92
62333;BME280;48624;49.812;8.562;2023-05-03T09:10:40;101581.94;;;14.98;51.48
62333;BME280;48624;49.812;8.562;2023-05-03T09:13:06;101582.16;;;15.34;50.37
62333;BME280;48624;49.812;8.562;2023-05-03T09:15:32;101587.13;;;15.64;50.14
62333;BME280;48624;49.812;8.562;2023-05-03T09:18:16;101580.44;;;14.94;52.49
62333;BME280;48624;49.812;8.562;2023-05-03T09:20:42;101588.69;;;15.04;51.85
62333;BME280;48624;49.812;8.562;2023-05-03T09:23:16;101580.44;;;15.46;50.27
62333;BME280;48624;49.812;8.562;2023-05-03T09:25:46;101581.41;;;16.08;49.25
62333;BME280;48624;49.812;8.562;2023-05-03T09:28:13;101568.53;;;15.76;49.57
62333;BME280;48624;49.812;8.562;2023-05-03T09:30:39;101577.25;;;15.53;49.07
62333;BME280;48624;49.812;8.562;2023-05-03T09:33:05;101574.78;;;15.88;48.89
62333;BME280;48624;49.812;8.562;2023-05-03T09:35:49;101571.81;;;15.92;49.18
62333;BME280;48624;49.812;8.562;2023-05-03T09:38:28;101564.00;;;16.27;48.21
62333;BME280;48624;49.812;8.562;2023-05-03T09:40:54;101560.25;;;16.05;48.34
62333;BME280;48624;49.812;8.562;2023-05-03T09:43:20;101565.00;;;16.73;47.90
62333;BME280;48624;49.812;8.562;2023-05-03T09:45:46;101555.66;;;16.43;48.39
62333;BME280;48624;49.812;8.562;2023-05-03T09:48:12;101561.69;;;16.58;47.59
62333;BME280;48624;49.812;8.562;2023-05-03T09:50:39;101552.50;;;15.76;49.65
62333;BME280;48624;49.812;8.562;2023-05-03T09:53:05;101553.88;;;15.81;50.28
62333;BME280;48624;49.812;8.562;2023-05-03T09:55:36;101552.91;;;15.95;49.24
62333;BME280;48624;49.812;8.562;2023-05-03T09:58:03;101557.69;;;16.03;49.11
62333;BME280;48624;49.812;8.562;2023-05-03T10:00:39;101550.09;;;16.21;49.21
62333;BME280;48624;49.812;8.562;2023-05-03T10:03:08;101552.22;;;16.29;49.37
62333;BME280;48624;49.812;8.562;2023-05-03T10:05:49;101543.91;;;16.45;46.92
62333;BME280;48624;49.812;8.562;2023-05-03T10:08:33;101535.03;;;15.96;49.60
62333;BME280;48624;49.812;8.562;2023-05-03T10:11:07;101539.28;;;16.47;48.59
62333;BME280;48624;49.812;8.562;2023-05-03T10:13:33;101531.13;;;16.96;46.62
62333;BME280;48624;49.812;8.562;2023-05-03T10:16:04;101540.16;;;17.06;46.03
62333;BME280;48624;49.812;8.562;2023-05-03T10:18:31;101530.09;;;16.74;46.99
62333;BME280;48624;49.812;8.562;2023-05-03T10:21:01;101524.72;;;17.33;46.01
62333;BME280;48624;49.812;8.562;2023-05-03T10:23:28;101523.47;;;17.71;45.81
62333;BME280;48624;49.812;8.562;2023-05-03T10:26:23;101519.69;;;17.74;44.50
62333;BME280;48624;49.812;8.562;2023-05-03T10:28:49;101516.34;;;17.93;44.84
62333;BME280;48624;49.812;8.562;2023-05-03T10:31:45;101506.44;;;17.50;45.55
62333;BME280;48624;49.812;8.562;2023-05-03T10:34:25;101517.09;;;18.28;44.06
62333;BME280;48624;49.812;8.562;2023-05-03T10:36:54;101521.75;;;18.47;43.55
62333;BME280;48624;49.812;8.562;2023-05-03T10:39:20;101512.00;;;17.81;42.87
62333;BME280;48624;49.812;8.562;2023-05-03T10:41:56;101513.69;;;18.26;42.52
62333;BME280;48624;49.812;8.562;2023-05-03T10:44:34;101513.69;;;18.26;41.87
62333;BME280;48624;49.812;8.562;2023-05-03T10:47:21;101521.56;;;19.03;41.35
62333;BME280;48624;49.812;8.562;2023-05-03T10:55:15;101512.19;;;19.28;40.96
62333;BME280;48624;49.812;8.562;2023-05-03T10:57:44;101510.13;;;19.51;40.76
62333;BME280;48624;49.812;8.562;2023-05-03T11:00:23;101510.53;;;19.06;41.76
62333;BME280;48624;49.812;8.562;2023-05-03T11:03:27;101508.13;;;19.94;40.14
62333;BME280;48624;49.812;8.562;2023-05-03T11:05:55;101507.09;;;19.35;39.60
62333;BME280;48624;49.812;8.562;2023-05-03T11:08:23;101501.03;;;19.93;40.12
62333;BME280;48624;49.812;8.562;2023-05-03T11:10:57;101493.63;;;20.64;37.60
62333;BME280;48624;49.812;8.562;2023-05-03T11:13:23;101500.66;;;20.95;37.15
62333;BME280;48624;49.812;8.562;2023-05-03T11:15:48;101497.34;;;20.44;36.55
62333;BME280;48624;49.812;8.562;2023-05-03T11:18:14;101489.91;;;19.06;39.55
62333;BME280;48624;49.812;8.562;2023-05-03T11:20:39;101484.06;;;20.13;38.07
62333;BME280;48624;49.812;8.562;2023-05-03T11:23:05;101483.31;;;19.91;40.02
62333;BME280;48624;49.812;8.562;2023-05-03T11:25:33;101473.75;;;20.08;39.50
62333;BME280;48624;49.812;8.562;2023-05-03T11:27:59;101481.63;;;20.29;39.84
62333;BME280;48624;49.812;8.562;2023-05-03T11:30:26;101472.47;;;20.89;37.18
62333;BME280;48624;49.812;8.562;2023-05-03T11:32:52;101456.16;;;21.19;37.26
62333;BME280;48624;49.812;8.562;2023-05-03T11:35:17;101459.16;;;21.62;36.19
62333;BME280;48624;49.812;8.562;2023-05-03T11:37:43;101456.97;;;21.01;36.81
62333;BME280;48624;49.812;8.562;2023-05-03T11:40:16;101459.69;;;20.44;37.80
62333;BME280;48624;49.812;8.562;2023-05-03T11:42:58;101455.25;;;20.52;37.90
62333;BME280;48624;49.812;8.562;2023-05-03T11:45:30;101452.22;;;20.75;34.88
62333;BME280;48624;49.812;8.562;2023-05-03T11:47:59;101462.81;;;20.19;36.59
62333;BME280;48624;49.812;8.562;2023-05-03T11:53:12;101462.88;;;20.67;35.75
62333;BME280;48624;49.812;8.562;2023-05-03T11:55:40;101447.22;;;21.65;35.13
62333;BME280;48624;49.812;8.562;2023-05-03T11:58:08;101446.13;;;21.57;35.16
62333;BME280;48624;49.812;8.562;2023-05-03T12:00:35;101454.25;;;20.63;36.16
62333;BME280;48624;49.812;8.562;2023-05-03T12:03:00;101449.50;;;21.69;33.79
62333;BME280;48624;49.812;8.562;2023-05-03T12:05:26;101444.88;;;21.98;33.24
62333;BME280;48624;49.812;8.562;2023-05-03T12:07:52;101440.09;;;21.92;31.92
62333;BME280;48624;49.812;8.562;2023-05-03T12:10:18;101445.69;;;20.88;36.47
62333;BME280;48624;49.812;8.562;2023-05-03T12:12:57;101431.06;;;21.65;34.50
62333;BME280;48624;49.812;8.562;2023-05-03T12:15:31;101427.84;;;22.42;33.75
62333;BME280;48624;49.812;8.562;2023-05-03T12:17:59;101428.44;;;22.09;32.38
62333;BME280;48624;49.812;8.562;2023-05-03T12:20:26;101422.72;;;22.30;32.12
62333;BME280;48624;49.812;8.562;2023-05-03T12:23:05;101421.59;;;21.60;30.87
62333;BME280;48624;49.812;8.562;2023-05-03T12:25:35;101417.19;;;22.14;32.96
62333;BME280;48624;49.812;8.562;2023-05-03T12:28:04;101407.34;;;22.31;31.31
62333;BME280;48624;49.812;8.562;2023-05-03T12:30:31;101414.09;;;22.53;29.66
62333;BME280;48624;49.812;8.562;2023-05-03T12:32:56;101409.06;;;22.93;30.33
62333;BME280;48624;49.812;8.562;2023-05-03T12:35:22;101409.78;;;22.16;30.12
62333;BME280;48624;49.812;8.562;2023-05-03T12:37:49;101405.03;;;22.36;31.30
62333;BME280;48624;49.812;8.562;2023-05-03T12:40:15;101401.50;;;22.70;31.29
62333;BME280;48624;49.812;8.562;2023-05-03T12:42:41;101393.03;;;22.57;30.49
62333;BME280;48624;49.812;8.562;2023-05-03T12:45:07;101388.34;;;22.67;29.88
62333;BME280;48624;49.812;8.562;2023-05-03T12:47:33;101394.38;;;23.04;31.08
62333;BME280;48624;49.812;8.562;2023-05-03T12:49:58;101398.25;;;23.61;29.00
62333;BME280;48624;49.812;8.562;2023-05-03T12:52:24;101391.97;;;23.36;29.90
62333;BME280;48624;49.812;8.562;2023-05-03T12:54:50;101397.25;;;23.46;29.30
62333;BME280;48624;49.812;8.562;2023-05-03T12:57:15;101397.88;;;23.39;28.75
62333;BME280;48624;49.812;8.562;2023-05-03T12:59:41;101398.06;;;23.38;28.76
62333;BME280;48624;49.812;8.562;2023-05-03T13:02:07;101394.19;;;23.98;28.14
62333;BME280;48624;49.812;8.562;2023-05-03T13:04:32;101389.28;;;24.02;28.35
62333;BME280;48624;49.812;8.562;2023-05-03T13:06:58;101385.94;;;24.08;29.25
62333;BME280;48624;49.812;8.562;2023-05-03T13:09:23;101377.63;;;23.68;28.37
62333;BME280;48624;49.812;8.562;2023-05-03T13:11:50;101375.50;;;24.53;28.31
62333;BME280;48624;49.812;8.562;2023-05-03T13:14:16;101367.25;;;24.47;27.74